sensor_id;sensor_type;location;lat;lon;timestamp;pressure;altitude;pressure_sealevel;temperature;humidity
7264;BME280;3673;52.480;13.348;2024-01-30T00:02:13;102522.25;;;9.41;44.85
7264;BME280;3673;52.480;13.348;2024-01-30T00:04:39;102524.69;;;9.09;45.58
7264;BME280;3673;52.480;13.348;2024-01-30T00:07:07;102512.75;;;9.17;45.49
7264;BME280;3673;52.480;13.348;2024-01-30T00:09:34;102514.59;;;9.20;45.22
7264;BME280;3673;52.480;13.348;2024-01-30T00:12:01;102510.03;;;9.14;45.38
7264;BME280;3673;52.480;13.348;2024-01-30T00:14:28;102522.56;;;9.24;45.38
7264;BME280;3673;52.480;13.348;2024-01-30T00:16:54;102514.53;;;9.18;45.25
7264;BME280;3673;52.480;13.348;2024-01-30T00:19:21;102515.31;;;8.91;45.80
7264;BME280;3673;52.480;13.348;2024-01-30T00:21:48;102526.88;;;8.97;46.00
7264;BME280;3673;52.480;13.348;2024-01-30T00:24:16;102525.56;;;8.85;46.15
7264;BME280;3673;52.480;13.348;2024-01-30T00:26:43;102514.72;;;8.74;46.66
7264;BME280;3673;52.480;13.348;2024-01-30T00:29:10;102515.13;;;8.85;46.18
7264;BME280;3673;52.480;13.348;2024-01-30T00:31:37;102512.09;;;8.98;46.08
7264;BME280;3673;52.480;13.348;2024-01-30T00:34:04;102519.63;;;8.89;46.17
7264;BME280;3673;52.480;13.348;2024-01-30T00:36:31;102512.63;;;9.13;45.79
7264;BME280;3673;52.480;13.348;2024-01-30T00:38:59;102515.91;;;8.82;46.58
7264;BME280;3673;52.480;13.348;2024-01-30T00:41:27;102503.41;;;8.97;45.94
7264;BME280;3673;52.480;13.348;2024-01-30T00:43:54;102505.59;;;8.61;46.68
7264;BME280;3673;52.480;13.348;2024-01-30T00:46:21;102512.44;;;9.08;46.02
7264;BME280;3673;52.480;13.348;2024-01-30T00:48:47;102509.75;;;9.05;46.16
7264;BME280;3673;52.480;13.348;2024-01-30T00:51:14;102501.91;;;9.05;46.18
7264;BME280;3673;52.480;13.348;2024-01-30T00:53:41;102497.06;;;9.16;45.50
7264;BME280;3673;52.480;13.348;2024-01-30T00:56:08;102508.28;;;9.13;45.70
7264;BME280;3673;52.480;13.348;2024-01-30T00:58:36;102503.00;;;9.39;45.13
7264;BME280;3673;52.480;13.348;2024-01-30T01:01:03;102496.13;;;8.89;45.85
7264;BME280;3673;52.480;13.348;2024-01-30T01:03:30;102504.19;;;8.71;46.72
7264;BME280;3673;52.480;13.348;2024-01-30T01:05:56;102510.44;;;9.00;46.45
7264;BME280;3673;52.480;13.348;2024-01-30T01:08:24;102504.94;;;8.67;47.15
7264;BME280;3673;52.480;13.348;2024-01-30T01:10:50;102515.50;;;8.70;47.20
7264;BME280;3673;52.480;13.348;2024-01-30T01:13:17;102518.81;;;8.91;46.23
7264;BME280;3673;52.480;13.348;2024-01-30T01:15:45;102516.00;;;8.60;47.11
7264;BME280;3673;52.480;13.348;2024-01-30T01:18:12;102500.50;;;8.90;46.74
7264;BME280;3673;52.480;13.348;2024-01-30T01:20:39;102519.44;;;8.84;46.48
7264;BME280;3673;52.480;13.348;2024-01-30T01:23:06;102513.91;;;8.75;46.69
7264;BME280;3673;52.480;13.348;2024-01-30T01:25:32;102515.50;;;8.46;47.03
7264;BME280;3673;52.480;13.348;2024-01-30T01:27:59;102518.50;;;8.57;46.91
7264;BME280;3673;52.480;13.348;2024-01-30T01:30:27;102509.72;;;8.31;47.54
7264;BME280;3673;52.480;13.348;2024-01-30T01:32:56;102521.03;;;8.32;48.08
7264;BME280;3673;52.480;13.348;2024-01-30T01:35:25;102509.72;;;8.55;47.38
7264;BME280;3673;52.480;13.348;2024-01-30T01:37:53;102518.94;;;8.45;47.55
7264;BME280;3673;52.480;13.348;2024-01-30T01:40:22;102517.22;;;8.46;47.98
7264;BME280;3673;52.480;13.348;2024-01-30T01:42:50;102514.88;;;8.77;46.97
7264;BME280;3673;52.480;13.348;2024-01-30T01:45:17;102519.22;;;8.53;47.44
7264;BME280;3673;52.480;13.348;2024-01-30T01:47:47;102510.91;;;8.39;48.04
7264;BME280;3673;52.480;13.348;2024-01-30T01:50:16;102508.88;;;8.56;47.73
7264;BME280;3673;52.480;13.348;2024-01-30T01:52:47;102506.47;;;8.60;47.12
7264;BME280;3673;52.480;13.348;2024-01-30T01:55:15;102503.38;;;8.48;47.51
7264;BME280;3673;52.480;13.348;2024-01-30T01:57:43;102514.94;;;8.31;47.91
7264;BME280;3673;52.480;13.348;2024-01-30T02:00:12;102509.31;;;8.20;48.34
7264;BME280;3673;52.480;13.348;2024-01-30T02:02:40;102509.81;;;8.34;48.02
7264;BME280;3673;52.480;13.348;2024-01-30T02:05:08;102515.94;;;8.35;48.01
7264;BME280;3673;52.480;13.348;2024-01-30T02:07:37;102508.47;;;8.44;47.30
7264;BME280;3673;52.480;13.348;2024-01-30T02:10:05;102504.78;;;8.39;47.64
7264;BME280;3673;52.480;13.348;2024-01-30T02:12:32;102504.31;;;8.26;47.80
7264;BME280;3673;52.480;13.348;2024-01-30T02:14:58;102509.09;;;8.38;48.03
7264;BME280;3673;52.480;13.348;2024-01-30T02:17:25;102511.03;;;8.20;48.29
7264;BME280;3673;52.480;13.348;2024-01-30T02:19:52;102498.00;;;8.20;48.49
7264;BME280;3673;52.480;13.348;2024-01-30T02:22:20;102512.69;;;8.40;47.90
7264;BME280;3673;52.480;13.348;2024-01-30T02:24:48;102521.69;;;8.26;48.64
7264;BME280;3673;52.480;13.348;2024-01-30T02:27:14;102507.56;;;8.43;47.96
7264;BME280;3673;52.480;13.348;2024-01-30T02:29:41;102509.47;;;8.72;47.71
7264;BME280;3673;52.480;13.348;2024-01-30T02:32:08;102515.53;;;8.48;47.86
7264;BME280;3673;52.480;13.348;2024-01-30T02:34:35;102518.56;;;8.12;48.25
7264;BME280;3673;52.480;13.348;2024-01-30T02:37:03;102501.50;;;8.20;48.36
7264;BME280;3673;52.480;13.348;2024-01-30T02:39:31;102520.94;;;8.06;48.22
7264;BME280;3673;52.480;13.348;2024-01-30T02:41:57;102506.63;;;8.19;48.18
7264;BME280;3673;52.480;13.348;2024-01-30T02:44:24;102510.72;;;8.35;47.91
7264;BME280;3673;52.480;13.348;2024-01-30T02:46:51;102506.94;;;8.04;48.81
7264;BME280;3673;52.480;13.348;2024-01-30T02:49:19;102495.34;;;8.42;48.26
7264;BME280;3673;52.480;13.348;2024-01-30T02:51:46;102492.78;;;8.20;48.41
7264;BME280;3673;52.480;13.348;2024-01-30T02:54:13;102498.06;;;8.45;48.43
7264;BME280;3673;52.480;13.348;2024-01-30T02:56:41;102491.31;;;8.50;48.22
7264;BME280;3673;52.480;13.348;2024-01-30T02:59:07;102487.13;;;8.32;48.55
7264;BME280;3673;52.480;13.348;2024-01-30T03:01:43;102488.22;;;8.62;47.60
7264;BME280;3673;52.480;13.348;2024-01-30T03:04:10;102487.31;;;8.60;47.62
7264;BME280;3673;52.480;13.348;2024-01-30T03:06:37;102494.06;;;8.31;48.16
7264;BME280;3673;52.480;13.348;2024-01-30T03:09:04;102482.38;;;8.44;47.89
7264;BME280;3673;52.480;13.348;2024-01-30T03:11:31;102483.00;;;8.37;48.45
7264;BME280;3673;52.480;13.348;2024-01-30T03:13:59;102475.78;;;8.53;48.20
7264;BME280;3673;52.480;13.348;2024-01-30T03:16:25;102477.38;;;8.50;47.82
7264;BME280;3673;52.480;13.348;2024-01-30T03:18:52;102477.09;;;8.67;47.57
7264;BME280;3673;52.480;13.348;2024-01-30T03:21:19;102476.91;;;8.61;47.75
7264;BME280;3673;52.480;13.348;2024-01-30T03:23:45;102478.00;;;8.43;48.30
7264;BME280;3673;52.480;13.348;2024-01-30T03:26:12;102468.44;;;8.43;48.24
7264;BME280;3673;52.480;13.348;2024-01-30T03:28:40;102480.47;;;8.63;47.65
7264;BME280;3673;52.480;13.348;2024-01-30T03:31:09;102492.56;;;8.38;48.13
7264;BME280;3673;52.480;13.348;2024-01-30T03:33:36;102481.09;;;8.33;48.83
7264;BME280;3673;52.480;13.348;2024-01-30T03:36:05;102466.22;;;8.54;48.43
7264;BME280;3673;52.480;13.348;2024-01-30T03:38:32;102474.81;;;8.51;48.11
7264;BME280;3673;52.480;13.348;2024-01-30T03:40:59;102473.97;;;8.52;48.14
7264;BME280;3673;52.480;13.348;2024-01-30T03:43:26;102474.41;;;8.17;48.96
7264;BME280;3673;52.480;13.348;2024-01-30T03:45:53;102477.03;;;7.95;49.20
7264;BME280;3673;52.480;13.348;2024-01-30T03:48:21;102470.63;;;8.09;49.45
7264;BME280;3673;52.480;13.348;2024-01-30T03:50:48;102475.03;;;8.10;49.44
7264;BME280;3673;52.480;13.348;2024-01-30T03:53:15;102465.56;;;8.36;49.18
7264;BME280;3673;52.480;13.348;2024-01-30T03:55:41;102481.13;;;8.10;49.87
7264;BME280;3673;52.480;13.348;2024-01-30T03:58:08;102481.38;;;8.18;49.25
7264;BME280;3673;52.480;13.348;2024-01-30T04:00:35;102475.34;;;7.73;49.68
7264;BME280;3673;52.480;13.348;2024-01-30T04:03:02;102479.59;;;7.93;50.05
7264;BME280;3673;52.480;13.348;2024-01-30T04:05:30;102475.16;;;7.68;50.22
7264;BME280;3673;52.480;13.348;2024-01-30T04:07:57;102471.00;;;7.51;50.63
7264;BME280;3673;52.480;13.348;2024-01-30T04:10:24;102470.31;;;7.55;50.42
7264;BME280;3673;52.480;13.348;2024-01-30T04:12:51;102485.50;;;7.45;50.76
7264;BME280;3673;52.480;13.348;2024-01-30T04:15:19;102474.75;;;7.58;50.36
7264;BME280;3673;52.480;13.348;2024-01-30T04:17:46;102477.31;;;7.56;50.67
7264;BME280;3673;52.480;13.348;2024-01-30T04:20:14;102480.13;;;7.85;50.37
7264;BME280;3673;52.480;13.348;2024-01-30T04:22:43;102475.81;;;7.85;50.31
7264;BME280;3673;52.480;13.348;2024-01-30T04:25:11;102483.03;;;7.92;50.31
7264;BME280;3673;52.480;13.348;2024-01-30T04:27:38;102481.44;;;7.96;49.94
7264;BME280;3673;52.480;13.348;2024-01-30T04:30:06;102475.72;;;8.06;49.86
7264;BME280;3673;52.480;13.348;2024-01-30T04:32:33;102468.59;;;8.00;49.90
7264;BME280;3673;52.480;13.348;2024-01-30T04:35:00;102470.59;;;7.85;49.97
7264;BME280;3673;52.480;13.348;2024-01-30T04:37:26;102469.59;;;7.82;49.89
7264;BME280;3673;52.480;13.348;2024-01-30T04:39:54;102474.09;;;7.86;49.70
7264;BME280;3673;52.480;13.348;2024-01-30T04:42:21;102463.38;;;8.00;49.50
7264;BME280;3673;52.480;13.348;2024-01-30T04:44:48;102468.97;;;7.87;50.18
7264;BME280;3673;52.480;13.348;2024-01-30T04:47:15;102470.41;;;8.03;49.77
7264;BME280;3673;52.480;13.348;2024-01-30T04:49:42;102465.66;;;8.39;49.27
7264;BME280;3673;52.480;13.348;2024-01-30T04:52:09;102455.34;;;8.42;49.13
7264;BME280;3673;52.480;13.348;2024-01-30T04:54:36;102454.22;;;8.11;49.86
7264;BME280;3673;52.480;13.348;2024-01-30T04:57:04;102462.47;;;7.77;49.69
7264;BME280;3673;52.480;13.348;2024-01-30T04:59:35;102460.63;;;7.97;50.06
7264;BME280;3673;52.480;13.348;2024-01-30T05:02:02;102465.34;;;7.84;50.33
7264;BME280;3673;52.480;13.348;2024-01-30T05:04:29;102467.31;;;7.91;49.93
7264;BME280;3673;52.480;13.348;2024-01-30T05:06:55;102466.09;;;8.03;49.72
7264;BME280;3673;52.480;13.348;2024-01-30T05:09:22;102468.13;;;8.12;49.27
7264;BME280;3673;52.480;13.348;2024-01-30T05:11:49;102456.69;;;8.31;49.15
7264;BME280;3673;52.480;13.348;2024-01-30T05:14:17;102473.78;;;8.00;49.66
7264;BME280;3673;52.480;13.348;2024-01-30T05:16:44;102466.19;;;8.06;49.69
7264;BME280;3673;52.480;13.348;2024-01-30T05:19:13;102465.09;;;8.00;50.01
7264;BME280;3673;52.480;13.348;2024-01-30T05:21:39;102465.19;;;7.81;50.19
7264;BME280;3673;52.480;13.348;2024-01-30T05:24:06;102475.56;;;8.01;50.11
7264;BME280;3673;52.480;13.348;2024-01-30T05:26:35;102467.88;;;7.82;50.16
7264;BME280;3673;52.480;13.348;2024-01-30T05:29:02;102462.81;;;8.09;49.50
7264;BME280;3673;52.480;13.348;2024-01-30T05:31:30;102466.59;;;8.17;49.38
7264;BME280;3673;52.480;13.348;2024-01-30T05:33:57;102465.84;;;7.97;49.67
7264;BME280;3673;52.480;13.348;2024-01-30T05:36:23;102461.63;;;8.01;49.81
7264;BME280;3673;52.480;13.348;2024-01-30T05:38:50;102460.41;;;7.91;49.67
7264;BME280;3673;52.480;13.348;2024-01-30T05:41:17;102460.97;;;7.83;49.90
7264;BME280;3673;52.480;13.348;2024-01-30T05:43:44;102451.53;;;7.86;49.49
7264;BME280;3673;52.480;13.348;2024-01-30T05:46:11;102459.09;;;8.02;49.58
7264;BME280;3673;52.480;13.348;2024-01-30T05:48:39;102454.78;;;7.81;50.03
7264;BME280;3673;52.480;13.348;2024-01-30T05:51:07;102449.88;;;8.12;49.56
7264;BME280;3673;52.480;13.348;2024-01-30T05:53:34;102462.00;;;8.10;49.29
7264;BME280;3673;52.480;13.348;2024-01-30T05:56:02;102455.16;;;8.13;49.39
7264;BME280;3673;52.480;13.348;2024-01-30T05:58:29;102453.81;;;8.01;49.49
7264;BME280;3673;52.480;13.348;2024-01-30T06:00:56;102453.19;;;7.84;50.01
7264;BME280;3673;52.480;13.348;2024-01-30T06:03:23;102441.66;;;8.25;49.02
7264;BME280;3673;52.480;13.348;2024-01-30T06:05:52;102449.28;;;8.19;49.48
7264;BME280;3673;52.480;13.348;2024-01-30T06:08:18;102446.47;;;8.37;49.37
7264;BME280;3673;52.480;13.348;2024-01-30T06:10:45;102453.78;;;8.23;49.14
7264;BME280;3673;52.480;13.348;2024-01-30T06:13:13;102443.06;;;8.15;49.88
7264;BME280;3673;52.480;13.348;2024-01-30T06:15:40;102464.00;;;8.17;49.36
7264;BME280;3673;52.480;13.348;2024-01-30T06:18:06;102443.00;;;8.14;49.56
7264;BME280;3673;52.480;13.348;2024-01-30T06:20:34;102454.41;;;8.17;49.73
7264;BME280;3673;52.480;13.348;2024-01-30T06:23:02;102448.13;;;7.87;50.28
7264;BME280;3673;52.480;13.348;2024-01-30T06:25:29;102456.00;;;8.12;49.58
7264;BME280;3673;52.480;13.348;2024-01-30T06:27:56;102442.25;;;8.16;49.66
7264;BME280;3673;52.480;13.348;2024-01-30T06:30:22;102456.56;;;8.04;50.07
7264;BME280;3673;52.480;13.348;2024-01-30T06:32:49;102449.09;;;8.14;49.76
7264;BME280;3673;52.480;13.348;2024-01-30T06:35:16;102438.91;;;8.20;49.39
7264;BME280;3673;52.480;13.348;2024-01-30T06:37:43;102448.28;;;8.15;50.04
7264;BME280;3673;52.480;13.348;2024-01-30T06:40:12;102441.34;;;8.16;49.81
7264;BME280;3673;52.480;13.348;2024-01-30T06:42:38;102452.06;;;8.00;49.65
7264;BME280;3673;52.480;13.348;2024-01-30T06:45:07;102444.22;;;8.00;49.73
7264;BME280;3673;52.480;13.348;2024-01-30T06:47:34;102442.13;;;7.90;50.10
7264;BME280;3673;52.480;13.348;2024-01-30T06:50:00;102439.25;;;8.06;50.10
7264;BME280;3673;52.480;13.348;2024-01-30T06:52:29;102444.94;;;7.96;50.37
7264;BME280;3673;52.480;13.348;2024-01-30T06:54:55;102438.56;;;8.11;49.69
7264;BME280;3673;52.480;13.348;2024-01-30T06:57:23;102443.19;;;8.42;49.34
7264;BME280;3673;52.480;13.348;2024-01-30T06:59:50;102442.19;;;8.39;49.54
7264;BME280;3673;52.480;13.348;2024-01-30T07:02:17;102421.59;;;8.46;49.37
7264;BME280;3673;52.480;13.348;2024-01-30T07:04:43;102431.63;;;8.59;49.10
7264;BME280;3673;52.480;13.348;2024-01-30T07:07:10;102440.66;;;8.44;48.68
7264;BME280;3673;52.480;13.348;2024-01-30T07:09:39;102445.47;;;8.09;49.51
7264;BME280;3673;52.480;13.348;2024-01-30T07:12:07;102434.00;;;8.28;48.88
7264;BME280;3673;52.480;13.348;2024-01-30T07:14:35;102445.16;;;8.25;49.78
7264;BME280;3673;52.480;13.348;2024-01-30T07:17:02;102441.06;;;8.56;49.44
7264;BME280;3673;52.480;13.348;2024-01-30T07:19:29;102450.16;;;8.19;49.27
7264;BME280;3673;52.480;13.348;2024-01-30T07:21:55;102446.00;;;8.48;48.92
7264;BME280;3673;52.480;13.348;2024-01-30T07:24:22;102441.31;;;8.38;49.35
7264;BME280;3673;52.480;13.348;2024-01-30T07:26:49;102433.41;;;8.60;48.56
7264;BME280;3673;52.480;13.348;2024-01-30T07:29:16;102435.00;;;8.32;49.23
7264;BME280;3673;52.480;13.348;2024-01-30T07:31:44;102445.13;;;8.48;49.02
7264;BME280;3673;52.480;13.348;2024-01-30T07:34:11;102438.13;;;8.23;49.35
7264;BME280;3673;52.480;13.348;2024-01-30T07:36:38;102432.13;;;8.74;48.21
7264;BME280;3673;52.480;13.348;2024-01-30T07:39:05;102431.56;;;8.58;48.51
7264;BME280;3673;52.480;13.348;2024-01-30T07:41:32;102441.59;;;8.46;48.60
7264;BME280;3673;52.480;13.348;2024-01-30T07:43:58;102421.66;;;8.48;48.70
7264;BME280;3673;52.480;13.348;2024-01-30T07:46:25;102436.81;;;8.34;49.06
7264;BME280;3673;52.480;13.348;2024-01-30T07:48:53;102438.13;;;8.23;49.45
7264;BME280;3673;52.480;13.348;2024-01-30T07:51:21;102436.28;;;8.44;49.05
7264;BME280;3673;52.480;13.348;2024-01-30T07:53:48;102428.69;;;8.26;49.21
7264;BME280;3673;52.480;13.348;2024-01-30T07:56:14;102429.97;;;8.38;49.00
7264;BME280;3673;52.480;13.348;2024-01-30T07:58:41;102432.84;;;8.44;48.85
7264;BME280;3673;52.480;13.348;2024-01-30T08:01:08;102436.16;;;8.40;49.30
7264;BME280;3673;52.480;13.348;2024-01-30T08:03:35;102426.75;;;8.21;49.92
7264;BME280;3673;52.480;13.348;2024-01-30T08:06:04;102423.91;;;8.37;49.11
7264;BME280;3673;52.480;13.348;2024-01-30T08:08:32;102431.13;;;8.71;48.89
7264;BME280;3673;52.480;13.348;2024-01-30T08:10:59;102418.94;;;8.70;48.75
7264;BME280;3673;52.480;13.348;2024-01-30T08:13:25;102420.41;;;8.87;48.39
7264;BME280;3673;52.480;13.348;2024-01-30T08:15:52;102427.44;;;8.64;48.52
7264;BME280;3673;52.480;13.348;2024-01-30T08:18:19;102426.03;;;8.74;48.57
7264;BME280;3673;52.480;13.348;2024-01-30T08:20:45;102425.16;;;8.73;48.63
7264;BME280;3673;52.480;13.348;2024-01-30T08:23:13;102432.91;;;8.97;48.07
7264;BME280;3673;52.480;13.348;2024-01-30T08:25:40;102431.16;;;8.98;48.21
7264;BME280;3673;52.480;13.348;2024-01-30T08:28:07;102425.19;;;8.75;48.71
7264;BME280;3673;52.480;13.348;2024-01-30T08:30:34;102424.75;;;8.88;48.40
7264;BME280;3673;52.480;13.348;2024-01-30T08:33:01;102420.50;;;9.17;47.82
7264;BME280;3673;52.480;13.348;2024-01-30T08:35:28;102406.59;;;8.91;48.23
7264;BME280;3673;52.480;13.348;2024-01-30T08:37:57;102410.97;;;9.19;47.68
7264;BME280;3673;52.480;13.348;2024-01-30T08:40:25;102406.59;;;9.18;47.62
7264;BME280;3673;52.480;13.348;2024-01-30T08:42:52;102405.72;;;9.46;46.58
7264;BME280;3673;52.480;13.348;2024-01-30T08:45:18;102420.44;;;8.89;47.71
7264;BME280;3673;52.480;13.348;2024-01-30T08:47:45;102404.13;;;8.96;47.60
7264;BME280;3673;52.480;13.348;2024-01-30T08:50:12;102407.00;;;9.03;46.95
7264;BME280;3673;52.480;13.348;2024-01-30T08:52:38;102413.53;;;9.17;46.84
7264;BME280;3673;52.480;13.348;2024-01-30T08:55:06;102410.88;;;9.44;46.08
7264;BME280;3673;52.480;13.348;2024-01-30T08:57:34;102404.91;;;9.48;45.91
7264;BME280;3673;52.480;13.348;2024-01-30T09:00:01;102411.69;;;9.70;45.74
7264;BME280;3673;52.480;13.348;2024-01-30T09:02:32;102403.09;;;9.46;45.92
7264;BME280;3673;52.480;13.348;2024-01-30T09:04:59;102404.88;;;9.18;46.50
7264;BME280;3673;52.480;13.348;2024-01-30T09:07:25;102407.38;;;9.15;46.83
7264;BME280;3673;52.480;13.348;2024-01-30T09:09:52;102404.47;;;9.33;46.63
7264;BME280;3673;52.480;13.348;2024-01-30T09:12:19;102411.19;;;9.53;46.02
7264;BME280;3673;52.480;13.348;2024-01-30T09:14:47;102403.94;;;9.45;45.66
7264;BME280;3673;52.480;13.348;2024-01-30T09:17:14;102407.00;;;9.31;46.28
7264;BME280;3673;52.480;13.348;2024-01-30T09:19:40;102406.53;;;9.45;46.05
7264;BME280;3673;52.480;13.348;2024-01-30T09:22:07;102414.25;;;9.40;45.97
7264;BME280;3673;52.480;13.348;2024-01-30T09:24:34;102411.00;;;9.47;45.92
7264;BME280;3673;52.480;13.348;2024-01-30T09:27:01;102411.56;;;9.37;45.85
7264;BME280;3673;52.480;13.348;2024-01-30T09:29:28;102413.47;;;9.43;45.96
7264;BME280;3673;52.480;13.348;2024-01-30T09:31:56;102414.56;;;9.79;45.63
7264;BME280;3673;52.480;13.348;2024-01-30T09:34:23;102414.03;;;9.91;45.18
7264;BME280;3673;52.480;13.348;2024-01-30T09:36:50;102404.81;;;10.05;45.00
7264;BME280;3673;52.480;13.348;2024-01-30T09:39:16;102405.69;;;10.04;44.56
7264;BME280;3673;52.480;13.348;2024-01-30T09:41:49;102392.78;;;10.41;43.88
7264;BME280;3673;52.480;13.348;2024-01-30T09:44:20;102402.31;;;9.78;44.96
7264;BME280;3673;52.480;13.348;2024-01-30T09:46:49;102407.41;;;10.03;44.53
7264;BME280;3673;52.480;13.348;2024-01-30T09:49:19;102404.31;;;9.87;44.87
7264;BME280;3673;52.480;13.348;2024-01-30T09:51:48;102400.50;;;10.05;44.20
7264;BME280;3673;52.480;13.348;2024-01-30T09:54:15;102403.31;;;10.13;44.34
7264;BME280;3673;52.480;13.348;2024-01-30T09:56:42;102396.28;;;10.42;43.23
7264;BME280;3673;52.480;13.348;2024-01-30T09:59:09;102399.81;;;10.12;43.88
7264;BME280;3673;52.480;13.348;2024-01-30T10:01:36;102385.75;;;10.39;43.53
7264;BME280;3673;52.480;13.348;2024-01-30T10:04:04;102388.31;;;10.06;43.96
7264;BME280;3673;52.480;13.348;2024-01-30T10:06:32;102388.16;;;10.01;44.07
7264;BME280;3673;52.480;13.348;2024-01-30T10:08:59;102389.41;;;10.45;43.13
7264;BME280;3673;52.480;13.348;2024-01-30T10:11:26;102392.16;;;10.85;42.36
7264;BME280;3673;52.480;13.348;2024-01-30T10:13:52;102394.63;;;11.14;41.31
7264;BME280;3673;52.480;13.348;2024-01-30T10:16:19;102392.84;;;10.77;42.29
7264;BME280;3673;52.480;13.348;2024-01-30T10:18:46;102382.84;;;10.97;41.78
7264;BME280;3673;52.480;13.348;2024-01-30T10:21:13;102378.41;;;10.94;41.56
7264;BME280;3673;52.480;13.348;2024-01-30T10:23:43;102372.69;;;10.74;42.02
7264;BME280;3673;52.480;13.348;2024-01-30T10:26:10;102388.16;;;10.64;42.33
7264;BME280;3673;52.480;13.348;2024-01-30T10:28:37;102372.63;;;10.71;42.11
7264;BME280;3673;52.480;13.348;2024-01-30T10:31:04;102378.78;;;11.11;41.21
7264;BME280;3673;52.480;13.348;2024-01-30T10:33:31;102376.47;;;11.23;40.75
7264;BME280;3673;52.480;13.348;2024-01-30T10:36:01;102373.81;;;11.21;40.67
7264;BME280;3673;52.480;13.348;2024-01-30T10:38:29;102369.38;;;11.19;40.78
7264;BME280;3673;52.480;13.348;2024-01-30T10:40:59;102366.38;;;11.01;41.32
7264;BME280;3673;52.480;13.348;2024-01-30T10:43:32;102361.78;;;11.29;40.61
7264;BME280;3673;52.480;13.348;2024-01-30T10:46:10;102372.16;;;11.25;40.75
7264;BME280;3673;52.480;13.348;2024-01-30T10:48:43;102368.13;;;11.02;40.70
7264;BME280;3673;52.480;13.348;2024-01-30T10:51:11;102367.84;;;11.27;40.60
7264;BME280;3673;52.480;13.348;2024-01-30T10:53:39;102361.38;;;11.50;40.28
7264;BME280;3673;52.480;13.348;2024-01-30T10:56:08;102368.81;;;11.32;40.47
7264;BME280;3673;52.480;13.348;2024-01-30T10:58:36;102369.63;;;11.29;40.43
7264;BME280;3673;52.480;13.348;2024-01-30T11:01:04;102369.13;;;11.87;39.41
7264;BME280;3673;52.480;13.348;2024-01-30T11:03:32;102373.25;;;11.75;39.62
7264;BME280;3673;52.480;13.348;2024-01-30T11:06:00;102363.47;;;11.68;39.92
7264;BME280;3673;52.480;13.348;2024-01-30T11:08:27;102371.91;;;11.53;40.02
7264;BME280;3673;52.480;13.348;2024-01-30T11:10:55;102363.41;;;11.65;39.96
7264;BME280;3673;52.480;13.348;2024-01-30T11:13:28;102369.34;;;11.58;39.79
7264;BME280;3673;52.480;13.348;2024-01-30T11:15:59;102368.50;;;11.99;39.30
7264;BME280;3673;52.480;13.348;2024-01-30T11:18:29;102363.31;;;12.02;39.08
7264;BME280;3673;52.480;13.348;2024-01-30T11:20:57;102357.13;;;11.99;39.15
7264;BME280;3673;52.480;13.348;2024-01-30T11:23:25;102359.94;;;11.66;40.02
7264;BME280;3673;52.480;13.348;2024-01-30T11:25:53;102351.84;;;12.45;38.61
7264;BME280;3673;52.480;13.348;2024-01-30T11:28:21;102346.47;;;11.91;39.56
7264;BME280;3673;52.480;13.348;2024-01-30T11:30:50;102351.09;;;12.03;39.64
7264;BME280;3673;52.480;13.348;2024-01-30T11:33:28;102346.38;;;11.85;39.69
7264;BME280;3673;52.480;13.348;2024-01-30T11:35:58;102346.94;;;12.14;39.18
7264;BME280;3673;52.480;13.348;2024-01-30T11:38:27;102341.09;;;11.83;39.83
7264;BME280;3673;52.480;13.348;2024-01-30T11:40:55;102355.81;;;12.20;39.32
7264;BME280;3673;52.480;13.348;2024-01-30T11:43:22;102352.44;;;12.29;39.18
7264;BME280;3673;52.480;13.348;2024-01-30T11:45:50;102352.16;;;12.12;39.38
7264;BME280;3673;52.480;13.348;2024-01-30T11:48:17;102351.94;;;12.00;39.33
7264;BME280;3673;52.480;13.348;2024-01-30T11:50:44;102349.38;;;12.05;39.28
7264;BME280;3673;52.480;13.348;2024-01-30T11:53:11;102349.25;;;11.99;39.77
7264;BME280;3673;52.480;13.348;2024-01-30T11:55:38;102347.34;;;12.36;39.10
7264;BME280;3673;52.480;13.348;2024-01-30T11:58:05;102338.28;;;12.19;39.31
7264;BME280;3673;52.480;13.348;2024-01-30T12:00:31;102336.97;;;12.44;38.90
7264;BME280;3673;52.480;13.348;2024-01-30T12:03:00;102341.84;;;12.24;39.45
7264;BME280;3673;52.480;13.348;2024-01-30T12:05:28;102330.19;;;12.58;39.00
7264;BME280;3673;52.480;13.348;2024-01-30T12:07:55;102335.44;;;12.07;39.78
7264;BME280;3673;52.480;13.348;2024-01-30T12:10:24;102336.19;;;12.51;39.09
7264;BME280;3673;52.480;13.348;2024-01-30T12:12:52;102332.91;;;12.63;39.00
7264;BME280;3673;52.480;13.348;2024-01-30T12:15:22;102325.38;;;12.31;39.77
7264;BME280;3673;52.480;13.348;2024-01-30T12:17:49;102323.50;;;12.77;38.86
7264;BME280;3673;52.480;13.348;2024-01-30T12:20:19;102315.81;;;12.89;38.56
7264;BME280;3673;52.480;13.348;2024-01-30T12:22:48;102316.16;;;12.04;40.18
7264;BME280;3673;52.480;13.348;2024-01-30T12:25:16;102311.94;;;12.13;40.05
7264;BME280;3673;52.480;13.348;2024-01-30T12:27:45;102303.31;;;12.20;40.15
7264;BME280;3673;52.480;13.348;2024-01-30T12:30:16;102300.16;;;12.39;39.94
7264;BME280;3673;52.480;13.348;2024-01-30T12:32:45;102295.00;;;12.46;39.68
7264;BME280;3673;52.480;13.348;2024-01-30T12:35:13;102290.91;;;12.63;39.55
7264;BME280;3673;52.480;13.348;2024-01-30T12:37:43;102286.75;;;12.23;40.31
7264;BME280;3673;52.480;13.348;2024-01-30T12:40:11;102292.59;;;12.59;40.01
7264;BME280;3673;52.480;13.348;2024-01-30T12:42:40;102281.19;;;12.06;41.12
7264;BME280;3673;52.480;13.348;2024-01-30T12:45:08;102288.41;;;12.72;40.11
7264;BME280;3673;52.480;13.348;2024-01-30T12:47:35;102280.28;;;13.14;39.19
7264;BME280;3673;52.480;13.348;2024-01-30T12:50:02;102268.78;;;13.07;39.66
7264;BME280;3673;52.480;13.348;2024-01-30T12:52:29;102265.13;;;12.98;39.52
7264;BME280;3673;52.480;13.348;2024-01-30T12:54:57;102260.66;;;12.89;39.84
7264;BME280;3673;52.480;13.348;2024-01-30T12:57:24;102258.13;;;12.97;39.80
7264;BME280;3673;52.480;13.348;2024-01-30T12:59:51;102257.78;;;12.72;40.73
7264;BME280;3673;52.480;13.348;2024-01-30T13:02:17;102263.88;;;12.71;40.57
7264;BME280;3673;52.480;13.348;2024-01-30T13:04:44;102261.41;;;12.80;40.36
7264;BME280;3673;52.480;13.348;2024-01-30T13:07:11;102254.50;;;12.88;40.42
7264;BME280;3673;52.480;13.348;2024-01-30T13:09:38;102258.13;;;12.98;40.13